Muniz Ferreira, Brazil
Current Conditions -  °F | °C
As of 8:00 PM on Saturday 20 Dec 2014 (Local Time) from SBSV Reporting Station
Few Clouds Few Clouds  
Wind Chill: 77°   Ceiling: Unl
Heat Index: 78°   Visibility: 6mi
Dew Point: 72°   Wind: 13mph
Humidity: 83%   Direction: 60°ENE
Pressure: 29.91"   Gusts: NA
Location:  13°S, 39.1°W
Report Text: SBSV 202300Z 06011KT 9999 FEW017 25/22 Q1013
Loading
Personal Weather Stations






























Interactive Weather Map New forecast layout! Learn more

10-Day Weather Forecast

Advertisements
Track Severe Weather on mobile